Latest Weather Observations for Esperance Airport

IDW60801

Issued at 2:03 am WST Thursday 2 March 2017 (issued every 30 minutes, with the page automatically refreshed every 10 minutes)

About weather observations | Map of weather stations | Latest weather observations for WA | Other Formats
Station Details ID: 009542 Name: ESPERANCE AERO Lat: -33.68 Lon: 121.83 Height: 142.0 m
Data from the previous 72 hours. | See also: Recent months at Esperance Airport
Date/Time
WST
Temp
°C
App
Temp
°C
Dew
Point
°C
Rel
Hum
%
Delta-T
°C
Wind Press
QNH
hPa
Press
MSL
hPa
Rain since
9am
mm
Dir  Spd
km/h
Gust
km/h
Spd
kts
Gust
kts
02/01:30am 20.9 17.3 10.4 51 5.7 NE 20 32 11 17 1017.1 1016.6 0.0
02/01:00am 20.8 17.2 10.6 52 5.6 NE 20 28 11 15 1017.2 1016.7 0.0
02/12:30am 21.1 17.5 10.6 51 5.8 NE 20 30 11 16 1017.2 1016.7 0.0
02/12:00am 21.8 18.1 10.3 48 6.3 NE 20 35 11 19 1017.4 1016.9 0.0
 
Date/Time
WST
Temp
°C
App
Temp
°C
Dew
Point
°C
Rel
Hum
%
Delta-T
°C
Wind Press
QNH
hPa
Press
MSL
hPa
Rain since
9am
mm
Dir  Spd
km/h
Gust
km/h
Spd
kts
Gust
kts
01/11:30pm 21.5 18.6 10.9 51 5.9 NE 17 28 9 15 1017.5 1017.0 0.0
01/11:00pm 21.6 19.2 12.5 56 5.2 NE 17 24 9 13 1017.6 1017.1 0.0
01/10:30pm 21.8 19.6 13.2 58 5.0 ENE 17 26 9 14 1017.6 1017.1 0.0
01/10:00pm 21.8 20.2 14.9 65 4.1 ENE 17 22 9 12 1017.6 1017.1 0.0
01/09:30pm 22.3 20.5 15.4 65 4.1 ENE 19 26 10 14 1017.7 1017.2 0.0
01/09:00pm 22.4 21.2 16.2 68 3.8 E 17 22 9 12 1017.9 1017.4 0.0
01/08:30pm 22.3 20.9 16.6 70 3.5 E 19 28 10 15 1017.7 1017.2 0.0
01/08:00pm 22.4 21.0 17.1 72 3.3 ESE 20 26 11 14 1017.6 1017.1 0.0
01/07:30pm 22.3 20.1 17.0 72 3.3 ESE 24 30 13 16 1016.7 1016.2 0.0
01/07:00pm 22.2 20.4 16.9 72 3.3 ESE 22 30 12 16 1016.7 1016.2 0.0
01/06:30pm 22.1 19.5 16.8 72 3.3 ESE 26 33 14 18 1016.8 1016.3 0.0
01/06:00pm 22.7 21.0 17.2 71 3.4 SE 22 30 12 16 1016.8 1016.3 0.0
01/05:30pm 23.6 22.2 18.0 71 3.5 SE 22 28 12 15 1017.1 1016.6 0.0
01/05:00pm 24.3 22.2 18.0 68 4.0 SE 26 33 14 18 1016.1 1015.7 0.0
01/04:30pm 25.3 22.7 17.7 62 4.8 SE 28 35 15 19 1016.5 1016.0 0.0
01/04:00pm 26.3 23.9 18.2 61 5.2 SE 28 35 15 19 1016.1 1015.7 0.0
01/03:30pm 26.7 25.1 18.3 60 5.4 SE 24 32 13 17 1016.1 1015.7 0.0
01/03:00pm 27.9 26.3 19.1 58 5.7 SE 26 35 14 19 1016.1 1015.7 0.0
01/02:30pm 29.2 28.1 19.5 56 6.4 SSE 24 32 13 17 1016.1 1015.7 0.0
01/02:00pm 29.0 27.6 19.6 57 6.2 SE 26 32 14 17 1016.6 1016.1 0.0
01/01:30pm 29.0 27.7 19.0 54 6.5 SE 24 30 13 16 1016.9 1016.4 0.0
01/01:00pm 32.1 31.1 13.3 31 11.3 E 11 17 6 9 1017.3 1016.8 0.0
01/12:30pm 31.4 29.6 12.2 30 11.4 ENE 13 22 7 12 1017.5 1017.0 0.0
01/12:00pm 31.1 30.1 13.4 34 10.7 NE 11 17 6 9 1017.7 1017.2 0.0
01/11:30am 29.4 29.3 14.0 39 9.3 ENE 7 15 4 8 1018.3 1017.8 0.0
01/11:00am 28.0 27.0 13.5 41 8.6 NE 11 17 6 9 1018.7 1018.2 0.0
01/10:30am 26.4 25.9 14.8 49 7.0 ENE 11 17 6 9 1019.0 1018.5 0.0
01/10:00am 24.9 24.1 15.0 54 6.0 ENE 13 19 7 10 1019.0 1018.5 0.0
01/09:30am 23.7 23.1 15.7 61 4.9 ENE 13 20 7 11 1019.1 1018.6 0.0
01/09:00am 22.0 21.3 15.4 66 4.0 ENE 13 22 7 12 1019.4 1018.9 0.2
01/08:30am 20.1 18.9 16.1 78 2.4 ENE 17 24 9 13 1019.0 1018.5 0.2
01/08:00am 18.4 17.6 17.2 93 0.7 ENE 17 22 9 12 1019.3 1018.8 0.2
01/07:57am 18.5 17.9 17.5 94 0.6 ENE 17 22 9 12 1019.4 1018.9 0.2
01/07:30am 16.9 16.5 16.1 95 0.5 E 13 19 7 10 1019.7 1019.2 0.2
01/07:19am 16.5 16.3 15.7 95 0.5 ENE 11 17 6 9 1019.8 1019.3 0.2
01/07:00am 16.2 15.9 15.4 95 0.5 ENE 11 17 6 9 1019.7 1019.2 0.2
01/06:30am 16.0 15.2 15.2 95 0.5 ENE 13 19 7 10 1019.6 1019.1 0.2
01/06:00am 16.0 15.6 15.2 95 0.5 ENE 11 15 6 8 1019.5 1019.0 0.2
01/05:30am 16.0 15.9 15.0 94 0.6 E 9 13 5 7 1019.3 1018.8 0.2
01/05:00am 16.4 16.5 15.4 94 0.6 ESE 9 17 5 9 1019.0 1018.5 0.2
01/04:48am 16.2 16.2 15.2 94 0.6 ESE 9 13 5 7 1019.1 1018.6 0.2
01/04:30am 15.8 15.6 14.8 94 0.6 ESE 9 11 5 6 1018.9 1018.3 0.2
01/04:00am 16.6 16.7 15.6 94 0.6 E 9 17 5 9 1018.6 1018.0 0.2
01/03:30am 16.8 16.3 15.8 94 0.6 ENE 13 19 7 10 1018.5 1017.9 0.2
01/03:00am 17.1 17.0 16.1 94 0.6 ENE 11 15 6 8 1018.3 1017.7 0.2
01/02:30am 17.1 16.3 16.1 94 0.6 ENE 15 24 8 13 1018.3 1017.7 0.2
01/02:00am 17.3 16.2 16.3 94 0.6 E 17 22 9 12 1018.3 1017.7 0.2
01/01:40am 17.4 16.3 16.4 94 0.6 E 17 22 9 12 1018.3 1017.7 0.2
01/01:30am 17.4 16.3 16.4 94 0.6 E 17 24 9 13 1018.3 1017.7 0.2
01/01:00am 17.5 16.1 16.5 94 0.6 ESE 19 24 10 13 1018.4 1017.8 0.2
01/12:30am 17.5 16.8 16.5 94 0.6 ESE 15 17 8 9 1018.5 1017.9 0.2
01/12:21am 17.6 17.0 16.6 94 0.6 ESE 15 20 8 11 1018.6 1018.0 0.2
01/12:00am 17.6 17.0 16.6 94 0.6 ESE 15 20 8 11 1018.5 1017.9 0.2
 
Date/Time
WST
Temp
°C
App
Temp
°C
Dew
Point
°C
Rel
Hum
%
Delta-T
°C
Wind Press
QNH
hPa
Press
MSL
hPa
Rain since
9am
mm
Dir  Spd
km/h
Gust
km/h
Spd
kts
Gust
kts
28/11:38pm 17.5 16.4 16.4 93 0.7 ESE 17 20 9 11 1018.6 1018.0 0.2
28/11:30pm 17.4 16.7 16.3 93 0.7 ESE 15 19 8 10 1018.7 1018.1 0.2
28/11:20pm 17.3 16.5 16.2 93 0.7 SE 15 19 8 10 1018.7 1018.1 0.2
28/11:00pm 17.3 16.5 16.2 93 0.7 ESE 15 19 8 10 1018.7 1018.1 0.2
28/10:30pm 17.9 16.9 16.6 92 0.8 ESE 17 20 9 11 1018.7 1018.1 0.2
28/10:00pm 18.2 17.2 16.7 91 0.9 ESE 17 24 9 13 1018.8 1018.2 0.2
28/09:30pm 18.4 17.0 16.9 91 0.9 ESE 20 28 11 15 1019.0 1018.5 0.2
28/09:00pm 18.5 16.3 16.8 90 1.0 ESE 24 35 13 19 1019.0 1018.5 0.2
28/08:30pm 18.5 16.3 16.8 90 1.0 SE 24 32 13 17 1018.9 1018.3 0.2
28/08:00pm 18.5 16.3 16.8 90 1.0 SE 24 33 13 18 1018.6 1018.0 0.2
28/07:30pm 18.4 16.1 16.7 90 1.0 ESE 24 33 13 18 1018.1 1017.5 0.2
28/07:00pm 18.6 16.4 16.8 89 1.1 ESE 24 28 13 15 1017.8 1017.2 0.2
28/06:48pm 18.8 16.6 16.8 88 1.2 SE 24 32 13 17 1017.6 1017.0 0.2
28/06:30pm 19.2 17.0 16.8 86 1.5 SE 24 32 13 17 1017.4 1016.8 0.2
28/06:00pm 20.0 17.8 17.0 83 1.8 SE 24 32 13 17 1017.2 1016.6 0.2
28/05:30pm 21.1 18.7 17.3 79 2.3 SSE 26 32 14 17 1017.0 1016.4 0.2
28/05:00pm 21.3 18.4 17.1 77 2.6 SSE 28 35 15 19 1016.8 1016.2 0.2
28/04:30pm 22.4 20.1 17.5 74 3.0 SE 26 35 14 19 1016.8 1016.2 0.2
28/04:00pm 23.0 20.4 17.7 72 3.3 SSE 28 35 15 19 1016.7 1016.1 0.2
28/03:30pm 23.9 21.7 17.9 69 3.8 SSE 26 35 14 19 1016.5 1015.9 0.2
28/03:00pm 23.0 20.0 17.7 72 3.3 SSE 30 39 16 21 1016.6 1016.0 0.2
28/02:30pm 24.8 22.7 18.0 66 4.3 SSE 26 33 14 18 1016.7 1016.1 0.2
28/02:00pm 25.8 24.6 19.2 67 4.3 SSE 24 32 13 17 1016.8 1016.2 0.2
28/01:30pm 25.6 24.0 18.3 64 4.6 SSE 24 33 13 18 1017.0 1016.4 0.2
28/01:00pm 26.8 25.5 18.1 59 5.5 ESE 22 28 12 15 1017.0 1016.4 0.2
28/12:30pm 24.1 22.9 17.1 65 4.4 ESE 19 24 10 13 1017.2 1016.6 0.0
28/12:00pm 23.9 22.7 18.3 71 3.5 SE 22 28 12 15 1017.5 1016.9 0.0
28/11:50am 22.9 22.0 17.8 73 3.2 SE 19 26 10 14 1017.7 1017.1 0.0
28/11:30am 23.3 22.5 18.0 72 3.3 SE 19 24 10 13 1017.9 1017.3 0.0
28/11:00am 22.4 21.4 17.5 74 3.0 SE 19 26 10 14 1017.8 1017.2 0.0
28/10:30am 22.4 21.7 18.6 79 2.4 SE 20 26 11 14 1018.1 1017.5 0.0
28/10:00am 21.3 20.1 17.5 79 2.3 ESE 20 26 11 14 1018.1 1017.5 0.0
28/09:30am 20.9 20.2 17.3 80 2.2 E 17 22 9 12 1018.5 1017.9 0.0
28/09:00am 20.4 19.9 17.8 85 1.6 ESE 17 24 9 13 1018.6 1018.0 1.8
28/08:30am 19.5 19.1 18.0 91 0.9 ESE 17 20 9 11 1018.6 1018.0 1.8
28/08:00am 18.7 17.5 17.4 92 0.8 ESE 20 26 11 14 1018.6 1018.0 1.8
28/07:30am 18.2 16.8 17.0 93 0.7 SE 20 32 11 17 1017.7 1017.1 1.8
28/07:22am 18.2 16.8 17.0 93 0.7 SE 20 28 11 15 1018.2 1017.6 1.8
28/07:00am 17.6 16.0 16.5 93 0.7 E 20 32 11 17 1018.3 1017.7 1.8
28/06:30am 17.6 16.6 16.5 93 0.7 E 17 20 9 11 1018.9 1018.3 1.8
28/06:11am 17.6 16.6 16.5 93 0.7 ESE 17 22 9 12 1019.0 1018.5 1.6
28/06:00am 17.7 17.1 16.6 93 0.7 E 15 20 8 11 1019.3 1018.8 1.6
28/05:30am 17.9 16.6 16.8 93 0.7 ESE 19 22 10 12 1019.1 1018.6 1.4
28/05:00am 17.9 17.7 16.8 93 0.7 SE 13 20 7 11 1019.1 1018.6 1.4
28/04:30am 17.9 17.4 16.8 93 0.7 SSE 15 22 8 12 1019.4 1018.9 1.4
28/04:00am 17.9 18.2 16.9 94 0.6 SSE 11 17 6 9 1019.1 1018.6 1.4
28/03:30am 18.0 18.3 17.0 94 0.6 S 11 17 6 9 1019.1 1018.6 1.4
28/03:00am 18.0 18.3 17.0 94 0.6 SSE 11 15 6 8 1018.0 1017.4 1.4
28/02:30am 18.0 17.2 17.0 94 0.6 SSE 17 24 9 13 1017.3 1016.7 1.4
28/02:00am 18.0 17.2 17.0 94 0.6 SSE 17 22 9 12 1017.0 1016.4 1.4
28/01:52am 18.0 16.8 17.0 94 0.6 SSE 19 24 10 13 1016.9 1016.3 1.4
28/01:40am 17.9 16.6 16.9 94 0.6 S 19 22 10 12 1016.8 1016.2 1.4
28/01:30am 17.9 17.0 16.9 94 0.6 SSE 17 20 9 11 1016.9 1016.3 1.4
28/01:00am 17.9 17.4 16.8 93 0.7 SE 15 22 8 12 1016.7 1016.1 1.4
28/12:30am 18.0 18.2 16.7 92 0.8 SSE 11 17 6 9 1017.5 1016.9 1.4
28/12:06am 18.2 19.1 16.7 91 0.9 WNW 7 13 4 7 1019.4 1018.9 0.8
28/12:00am 18.2 18.4 16.7 91 0.9 WNW 11 15 6 8 1019.7 1019.2 0.8
 
Date/Time
WST
Temp
°C
App
Temp
°C
Dew
Point
°C
Rel
Hum
%
Delta-T
°C
Wind Press
QNH
hPa
Press
MSL
hPa
Rain since
9am
mm
Dir  Spd
km/h
Gust
km/h
Spd
kts
Gust
kts
27/11:47pm 18.4 18.7 16.9 91 0.9 NNW 11 17 6 9 1020.1 1019.6 0.8
27/11:40pm 18.5 19.6 17.0 91 0.9 E 7 11 4 6 1019.8 1019.3 0.0
27/11:30pm 18.3 18.1 16.8 91 0.9 SSE 13 17 7 9 1018.6 1018.0 0.0
27/11:00pm 18.4 19.0 16.7 90 1.0 NW 9 15 5 8 1019.3 1018.8 0.0
27/10:30pm 18.4 18.2 16.7 90 1.0 SSE 13 17 7 9 1018.4 1017.8 0.0
27/10:00pm 18.4 18.6 16.7 90 1.0 SE 11 15 6 8 1018.6 1018.0 0.0
27/09:30pm 18.4 17.4 16.7 90 1.0 SSE 17 22 9 12 1018.1 1017.5 0.0
27/09:00pm 18.4 17.4 16.7 90 1.0 SSE 17 22 9 12 1018.1 1017.5 0.0
27/08:30pm 18.5 17.6 16.8 90 1.0 SE 17 22 9 12 1018.0 1017.4 0.0
27/08:00pm 18.5 17.5 16.7 89 1.1 SSE 17 22 9 12 1017.7 1017.1 0.0
27/07:30pm 18.5 17.5 16.7 89 1.1 SSE 17 22 9 12 1017.3 1016.7 0.0
27/07:00pm 18.5 17.5 16.5 88 1.2 SSE 17 20 9 11 1017.1 1016.5 0.0
27/06:30pm 18.6 17.2 16.6 88 1.2 SSE 19 24 10 13 1016.8 1016.2 0.0
27/06:00pm 18.9 17.5 16.5 86 1.4 SSE 19 24 10 13 1016.6 1016.0 0.0
27/05:30pm 18.9 17.5 16.5 86 1.4 SSE 19 24 10 13 1016.3 1015.8 0.0
27/05:00pm 19.1 17.6 16.3 84 1.7 SSE 19 22 10 12 1016.2 1015.7 0.0
27/04:30pm 19.8 18.3 16.4 81 2.1 SSE 19 24 10 13 1015.9 1015.4 0.0
27/04:00pm 20.1 18.6 16.3 79 2.3 S 19 26 10 14 1016.0 1015.5 0.0
27/03:30pm 21.0 19.6 16.6 76 2.7 SSE 19 24 10 13 1015.8 1015.3 0.0
27/03:00pm 20.7 19.2 16.3 76 2.7 SSE 19 24 10 13 1015.7 1015.2 0.0
27/02:30pm 20.8 19.3 16.4 76 2.7 SE 19 28 10 15 1016.0 1015.5 0.0
27/02:00pm 21.2 20.0 16.0 72 3.1 SSE 17 24 9 13 1016.2 1015.7 0.0
27/01:47pm 21.3 19.5 16.0 72 3.2 SSE 20 26 11 14 1016.0 1015.5 0.0
27/01:30pm 21.7 20.1 16.6 73 3.1 SSE 20 26 11 14 1016.2 1015.7 0.0
27/01:00pm 23.0 21.2 17.0 69 3.7 SSE 22 26 12 14 1016.1 1015.6 0.0
27/12:30pm 22.5 21.0 16.8 70 3.5 S 20 30 11 16 1016.2 1015.7 0.0
27/12:10pm 21.9 20.5 16.6 72 3.2 SSE 19 24 10 13 1016.8 1016.2 0.0
27/12:00pm 21.9 21.2 17.3 75 2.8 SSE 17 24 9 13 1016.9 1016.3 0.0
27/11:30am 20.9 20.8 16.9 78 2.4 S 13 19 7 10 1017.4 1016.8 0.0
27/11:00am 20.1 18.5 16.1 78 2.4 S 19 22 10 12 1016.8 1016.2 0.0
27/10:30am 20.2 19.9 16.4 79 2.3 S 13 20 7 11 1017.1 1016.5 0.0
27/10:00am 19.9 18.9 16.7 82 1.9 S 17 20 9 11 1017.2 1016.6 0.0
27/09:30am 19.3 19.0 16.5 84 1.7 SSE 13 17 7 9 1017.1 1016.5 0.0
27/09:00am 19.3 19.6 16.9 86 1.5 SSE 11 20 6 11 1017.2 1016.6 0.0
27/08:30am 18.8 18.3 16.8 88 1.2 SE 15 19 8 10 1016.3 1015.8 0.0
27/08:00am 18.7 17.5 17.0 90 1.0 SSW 19 22 10 12 1016.6 1016.0 0.0
27/07:30am 18.6 17.7 16.9 90 1.0 SSW 17 20 9 11 1016.8 1016.2 0.0
27/07:00am 18.4 17.9 16.9 91 0.9 SSE 15 19 8 10 1015.9 1015.4 0.0
27/06:30am 18.2 18.1 16.9 92 0.8 S 13 19 7 10 1015.6 1015.1 0.0
27/06:00am 18.2 18.0 16.7 91 0.9 SSW 13 19 7 10 1015.9 1015.4 0.0
27/05:30am 18.2 18.8 16.9 92 0.8 WSW 9 13 5 7 1015.9 1015.4 0.0
27/05:00am 18.1 17.6 16.8 92 0.8 SSW 15 20 8 11 1015.0 1014.5 0.0
27/04:30am 18.0 18.2 16.7 92 0.8 SSW 11 15 6 8 1014.3 1013.8 0.0
27/04:00am 18.0 18.2 16.7 92 0.8 SW 11 15 6 8 1014.9 1014.4 0.0
27/03:30am 17.9 17.3 16.6 92 0.8 SW 15 20 8 11 1014.4 1013.9 0.0
27/03:00am 18.0 17.4 16.7 92 0.8 SSW 15 19 8 10 1014.4 1013.9 0.0
27/02:30am 18.1 17.6 16.8 92 0.8 S 15 20 8 11 1014.0 1013.5 0.0

Other Formats:

Comma delimited format used in spreadsheet applications
http://www.bom.gov.au/fwo/IDW60801/IDW60801.95638.axf

JavaScript Object Notation format (JSON) in row-major order
http://www.bom.gov.au/fwo/IDW60801/IDW60801.95638.json